TimeCDT,TemperatureF,Dew PointF,Humidity,Sea Level PressureIn,VisibilityMPH,Wind Direction,Wind SpeedMPH,Gust SpeedMPH,PrecipitationIn,Events,Conditions,WindDirDegrees,DateUTC
12:53 AM,41.0,39.0,93,29.99,10.0,North,10.4,-,N/A,,Overcast,360,2013-10-30 05:53:00
1:21 AM,41.0,39.2,93,29.96,10.0,North,6.9,-,N/A,,Overcast,360,2013-10-30 06:21:00
1:46 AM,41.0,39.2,93,29.96,10.0,North,6.9,-,N/A,,Overcast,10,2013-10-30 06:46:00
1:53 AM,41.0,39.9,96,29.99,10.0,NNE,5.8,-,N/A,,Overcast,30,2013-10-30 06:53:00
2:53 AM,41.0,39.9,96,29.97,10.0,NNE,5.8,-,N/A,,Overcast,30,2013-10-30 07:53:00
3:50 AM,41.0,39.2,93,29.94,3.0,ENE,4.6,-,N/A,,Overcast,70,2013-10-30 08:50:00
3:53 AM,41.0,39.9,96,29.97,4.0,ENE,4.6,-,N/A,,Overcast,70,2013-10-30 08:53:00
4:41 AM,41.0,39.2,93,29.94,2.5,Calm,Calm,-,N/A,,Overcast,0,2013-10-30 09:41:00
4:53 AM,41.0,39.9,96,29.97,2.0,Calm,Calm,-,N/A,,Overcast,0,2013-10-30 09:53:00
5:51 AM,41.0,39.2,93,29.95,2.5,NNW,5.8,-,N/A,,Overcast,330,2013-10-30 10:51:00
5:53 AM,41.0,39.9,96,29.97,2.5,NNW,4.6,-,N/A,,Overcast,330,2013-10-30 10:53:00
6:09 AM,39.2,39.2,100,29.95,3.0,NNW,5.8,-,N/A,,Overcast,330,2013-10-30 11:09:00
6:21 AM,39.2,39.2,100,29.93,4.0,North,4.6,-,N/A,,Overcast,350,2013-10-30 11:21:00
6:53 AM,41.0,39.9,96,29.95,8.0,North,3.5,-,N/A,,Overcast,350,2013-10-30 11:53:00
7:04 AM,41.0,39.2,93,29.93,6.0,NNW,3.5,-,N/A,,Overcast,340,2013-10-30 12:04:00
7:53 AM,41.0,39.9,96,29.95,8.0,NNE,4.6,-,N/A,,Overcast,20,2013-10-30 12:53:00
8:24 AM,39.2,39.2,100,29.91,1.8,NNE,4.6,-,N/A,,Overcast,30,2013-10-30 13:24:00
8:43 AM,39.2,39.2,100,29.91,3.0,North,5.8,-,N/A,,Overcast,10,2013-10-30 13:43:00
8:53 AM,41.0,39.9,96,29.94,4.0,North,4.6,-,N/A,,Overcast,360,2013-10-30 13:53:00
9:53 AM,42.1,39.9,92,29.95,10.0,NNW,6.9,-,N/A,,Overcast,330,2013-10-30 14:53:00
10:53 AM,43.0,41.0,93,29.95,10.0,NW,5.8,-,N/A,,Overcast,320,2013-10-30 15:53:00
11:06 AM,42.8,41.0,93,29.92,10.0,NNW,6.9,-,N/A,,Overcast,330,2013-10-30 16:06:00
11:53 AM,44.1,42.1,93,29.94,10.0,NNW,8.1,-,N/A,,Overcast,330,2013-10-30 16:53:00
12:53 PM,46.0,42.1,86,29.91,10.0,NNW,8.1,-,N/A,,Overcast,330,2013-10-30 17:53:00
1:50 PM,46.4,42.8,87,29.87,10.0,NNW,9.2,-,N/A,,Overcast,330,2013-10-30 18:50:00
1:53 PM,46.0,42.1,86,29.88,10.0,WNW,8.1,-,N/A,,Overcast,300,2013-10-30 18:53:00
2:53 PM,48.9,42.1,77,29.85,10.0,NW,9.2,-,N/A,,Overcast,310,2013-10-30 19:53:00
3:19 PM,48.2,42.8,82,29.83,10.0,NNW,9.2,-,N/A,,Overcast,340,2013-10-30 20:19:00
3:53 PM,50.0,42.1,74,29.83,10.0,NW,9.2,-,N/A,,Overcast,320,2013-10-30 20:53:00
4:53 PM,51.1,42.1,71,29.83,10.0,NNW,3.5,-,N/A,,Overcast,340,2013-10-30 21:53:00
5:25 PM,51.8,41.0,67,29.81,10.0,North,5.8,-,N/A,,Scattered Clouds,350,2013-10-30 22:25:00
5:53 PM,51.1,41.0,68,29.83,10.0,North,3.5,-,N/A,,Clear,360,2013-10-30 22:53:00
6:53 PM,42.1,37.9,85,29.84,10.0,North,3.5,-,N/A,,Clear,10,2013-10-30 23:53:00
7:53 PM,37.0,36.0,96,29.86,10.0,Calm,Calm,-,N/A,,Clear,0,2013-10-31 00:53:00
8:53 PM,36.0,35.1,97,29.85,10.0,NNE,3.5,-,N/A,,Clear,20,2013-10-31 01:53:00
9:53 PM,35.1,33.1,92,29.83,8.0,Calm,Calm,-,N/A,,Clear,0,2013-10-31 02:53:00
10:53 PM,35.1,34.0,96,29.82,9.0,Calm,Calm,-,N/A,,Clear,0,2013-10-31 03:53:00
11:53 PM,35.1,35.1,100,29.82,8.0,Calm,Calm,-,N/A,,Mostly Cloudy,0,2013-10-31 04:53:00